Pagrindinis puslapis
METAR-TAF:

METAR-TAF

Oro uostai :

Monte Scuro, Italija

platuma: 39-20N, ilguma: 016-24E, Aukštis: 1710 m

Dabartinis oras

Ataskaita buvo paskelbta 18 minutes, ne 18:55 UTC
Vėjas 16 kt iš Vakarų
Temperatūra 12°C
Drėgmė 76%
Slėgis 1020 hPa
Matomumas 10 km arba daugiau
nėra debesų žemiau 1500 m ir nėra kamuolinių lietaus debesų

METAR: LIBQ 191855Z 27016KT CAVOK 12/08 Q1020 RMK SKC MON LIB VAL NIL VIS MIN 9999

Laikas: 21:13 (19:13 UTC)


TAF: trūkstamas

Orai ataskaitas ir orų prognozės (METAR, TAF).

turimą stotys yra geltonos ir raudonos taškus žemėlapyje.

Perkelti pele per norėdami pamatyti stoties vardą.

Tada spustelėkite, norėdami matyti oro stebėjimo ir prognozės.

Norėdami pakeisti žemėlapį: spustelėkite ant žalios mygtukų su juodo kryžiaus žemyn,; žalią mygtuką su brūkšneliu, jei norite nutolinti; arba žalių rodyklių gretimoms žemėlapius.


METAR-TAF: